Biratnagar Airport

Jump to: basic info | weather | frequencies | runways | comments

Related pages: nearby airports | nearby navaids | notams | map

Basic information (top)

Codes: BIR VNVT
Location: lon 26.481501, lat 87.264000, elev 236 ft / 72 m msl
Status: medium_airport
Scheduled airline service: yes
Links: Wikipedia Mobile

Weather (top)

Current conditions for Bagdogra Airport 58nm (108km) ENE (rec'd 2014/01/20 06:00Z):

VEBD 200600Z 05006KT 4000 HZ SKC 21/14 Q1023 BECMG 5000

Airport forecast for Tribhuvan International Airport 125nm (232km) NW (rec'd 2015/03/29 06:12Z):

TAF TAF VNKT 290300Z 2906/3006 27006KT 8000 FEW025 SCT100 BKN250 PROB30 
      TEMPO 2907/2913 VRB15KT 3000 TSRA/SHRA FEW025CB SCT030 OVC100 
      BECMG 2914/2915 00000KT 7000 FEW020 SCT100 BKN250 
      BECMG 3000/3002 3000 BR FEW020 SCT100 BKN250 PROB30 
      TEMPO 3000/3003 1000 BR 
      BECMG 3003/3004 12003KT 4000 BR FEW020 SCT100 
      BECMG 3005/3006 24005KT 5000 HZ FEW025 SCT100

Frequencies (top)

Verify before use: may be inaccurate or out of date.

TWR: 123.8 MHz (TWR)

Runways (top)

09/27: 4,937 x 100 ft (1,505 x 30 m) — paved — lighted

Latest comments (top)

No comments yet for Biratnagar Airport

More... (top)

See also NOTAMs and nearby airports and navaids, or visit the Biratnagar Airport page at the main OurAirports website..